Time;durP1;ratioP1;P1;durP2;ratioP2;P2;SDS_P1;SDS_P2;PMS_P1;PMS_P2;Temp;Humidity;BMP_temperature;BMP_pressure;BME280_temperature;BME280_humidity;BME280_pressure;Samples;Min_cycle;Max_cycle;Signal;HPM_P1;HPM_P2
2022/12/07 00:02:11;;;;;;;;;;;;;;;;;;5071871;28;19908;-50
2022/12/07 00:04:37;;;;;;;;;;;;;;;;;;5071823;28;19909;-49
2022/12/07 00:07:04;;;;;;;;;;;;;;;;;;5071670;28;19915;-50
2022/12/07 00:09:29;;;;;;;;;;;;;;;;;;5059886;28;20309;-50
2022/12/07 00:11:55;;;;;;;;;;;;;;;;;;5051986;28;19917;-49
2022/12/07 00:14:21;;;;;;;;;;;;;;;;;;5051619;28;19923;-50
2022/12/07 00:16:47;;;;;;;;;;;;;;;;;;5050419;28;20400;-51
2022/12/07 00:19:13;;;;;;;;;;;;;;;;;;5050122;28;19909;-49
2022/12/07 00:21:39;;;;;;;;;;;;;;;;;;5051507;28;19954;-50
2022/12/07 00:24:05;;;;;;;;;;;;;;;;;;5051509;28;20416;-50
2022/12/07 00:26:31;;;;;;;;;;;;;;;;;;5050159;28;19923;-49
2022/12/07 00:28:57;;;;;;;;;;;;;;;;;;5051300;28;19920;-50
2022/12/07 00:31:23;;;;;;;;;;;;;;;;;;5051410;28;19915;-53
2022/12/07 00:33:49;;;;;;;;;;;;;;;;;;5050099;28;19960;-50
2022/12/07 00:36:15;;;;;;;;;;;;;;;;;;5051346;28;19940;-49
2022/12/07 00:38:40;;;;;;;;;;;;;;;;;;5051278;28;20012;-49
2022/12/07 00:41:06;;;;;;;;;;;;;;;;;;5051216;28;20364;-53
2022/12/07 00:43:32;;;;;;;;;;;;;;;;;;5051423;28;20316;-50
2022/12/07 00:45:58;;;;;;;;;;;;;;;;;;5061796;28;19908;-50
2022/12/07 00:48:24;;;;;;;;;;;;;;;;;;5074876;28;19908;-50
2022/12/07 00:50:50;;;;;;;;;;;;;;;;;;5074146;28;19916;-50
2022/12/07 00:53:16;;;;;;;;;;;;;;;;;;5074542;28;19916;-50
2022/12/07 00:55:42;;;;;;;;;;;;;;;;;;5074572;28;19913;-50
2022/12/07 00:58:08;;;;;;;;;;;;;;;;;;5074510;28;19912;-50
2022/12/07 01:00:34;;;;;;;;;;;;;;;;;;5074425;28;20411;-50
2022/12/07 01:03:00;;;;;;;;;;;;;;;;;;5074401;28;20377;-50
2022/12/07 01:05:26;;;;;;;;;;;;;;;;;;5073991;28;19919;-50
2022/12/07 01:07:52;;;;;;;;;;;;;;;;;;5074013;28;19912;-53
2022/12/07 01:10:18;;;;;;;;;;;;;;;;;;5074055;28;19948;-50
2022/12/07 01:12:44;;;;;;;;;;;;;;;;;;5073963;28;19922;-52
2022/12/07 01:15:09;;;;;;;;;;;;;;;;;;5074105;28;20379;-49
2022/12/07 01:17:35;;;;;;;;;;;;;;;;;;5074309;28;19913;-49
2022/12/07 01:20:01;;;;;;;;;;;;;;;;;;5073565;28;19919;-50
2022/12/07 01:22:27;;;;;;;;;;;;;;;;;;5072755;28;20277;-51
2022/12/07 01:24:53;;;;;;;;;;;;;;;;;;5074258;28;19915;-50
2022/12/07 01:27:19;;;;;;;;;;;;;;;;;;5073875;28;19966;-50
2022/12/07 01:29:45;;;;;;;;;;;;;;;;;;5074269;28;19908;-50
2022/12/07 01:32:11;;;;;;;;;;;;;;;;;;5072375;28;19912;-51
2022/12/07 01:34:37;;;;;;;;;;;;;;;;;;5073800;28;19955;-50
2022/12/07 01:37:03;;;;;;;;;;;;;;;;;;5073636;28;19920;-53
2022/12/07 01:39:29;;;;;;;;;;;;;;;;;;5073742;28;19912;-53
2022/12/07 01:41:55;;;;;;;;;;;;;;;;;;5073727;28;19919;-51
2022/12/07 01:44:21;;;;;;;;;;;;;;;;;;5073433;28;19916;-50
2022/12/07 01:46:47;;;;;;;;;;;;;;;;;;5073242;28;19912;-52
2022/12/07 01:49:13;;;;;;;;;;;;;;;;;;5073547;28;19912;-50
2022/12/07 01:51:38;;;;;;;;;;;;;;;;;;5073264;28;19927;-50
2022/12/07 01:54:04;;;;;;;;;;;;;;;;;;5073214;28;19924;-51
2022/12/07 01:56:30;;;;;;;;;;;;;;;;;;5073523;28;19916;-50
2022/12/07 01:58:56;;;;;;;;;;;;;;;;;;5073212;28;19912;-54
2022/12/07 02:01:22;;;;;;;;;;;;;;;;;;5073122;28;20394;-52
2022/12/07 02:03:48;;;;;;;;;;;;;;;;;;5073420;28;19916;-50
2022/12/07 02:06:14;;;;;;;;;;;;;;;;;;5072853;28;19920;-50
2022/12/07 02:08:40;;;;;;;;;;;;;;;;;;5073255;28;19913;-52
2022/12/07 02:11:06;;;;;;;;;;;;;;;;;;5073069;28;19912;-50
2022/12/07 02:13:32;;;;;;;;;;;;;;;;;;5071593;28;20379;-53
2022/12/07 02:15:57;;;;;;;;;;;;;;;;;;5071390;28;19932;-51
2022/12/07 02:18:23;;;;;;;;;;;;;;;;;;5072681;28;20022;-50
2022/12/07 02:20:49;;;;;;;;;;;;;;;;;;5073051;28;19981;-51
2022/12/07 02:23:15;;;;;;;;;;;;;;;;;;5072927;28;20728;-50
2022/12/07 02:25:41;;;;;;;;;;;;;;;;;;5072564;28;20416;-53
2022/12/07 02:28:07;;;;;;;;;;;;;;;;;;5072725;28;19958;-49
2022/12/07 02:30:33;;;;;;;;;;;;;;;;;;5072476;28;19912;-50
2022/12/07 02:32:59;;;;;;;;;;;;;;;;;;5071104;28;19912;-53
2022/12/07 02:35:25;;;;;;;;;;;;;;;;;;5072203;28;19936;-50
2022/12/07 02:37:51;;;;;;;;;;;;;;;;;;5072913;28;20435;-50
2022/12/07 02:40:16;;;;;;;;;;;;;;;;;;5072746;28;20315;-50
2022/12/07 02:42:42;;;;;;;;;;;;;;;;;;5059685;28;19909;-51
2022/12/07 02:45:08;;;;;;;;;;;;;;;;;;5052803;28;19913;-53
2022/12/07 02:47:34;;;;;;;;;;;;;;;;;;5052706;28;19913;-52
2022/12/07 02:50:00;;;;;;;;;;;;;;;;;;5052782;28;20368;-51
2022/12/07 02:52:26;;;;;;;;;;;;;;;;;;5052566;28;19916;-53
2022/12/07 02:54:52;;;;;;;;;;;;;;;;;;5065230;28;19963;-50
2022/12/07 02:57:18;;;;;;;;;;;;;;;;;;5072600;28;19955;-49
2022/12/07 02:59:45;;;;;;;;;;;;;;;;;;5071188;28;19915;-50
2022/12/07 03:02:11;;;;;;;;;;;;;;;;;;5072411;28;20317;-51
2022/12/07 03:04:37;;;;;;;;;;;;;;;;;;5072415;28;19924;-50
2022/12/07 03:07:03;;;;;;;;;;;;;;;;;;5071113;28;19912;-50
2022/12/07 03:09:29;;;;;;;;;;;;;;;;;;5070594;28;19908;-51
2022/12/07 03:11:55;;;;;;;;;;;;;;;;;;5072294;28;19922;-51
2022/12/07 03:14:21;;;;;;;;;;;;;;;;;;5072320;28;19973;-50
2022/12/07 03:16:46;;;;;;;;;;;;;;;;;;5072324;28;19909;-50
2022/12/07 03:19:12;;;;;;;;;;;;;;;;;;5072155;28;19916;-50
2022/12/07 03:21:38;;;;;;;;;;;;;;;;;;5072167;28;19908;-50
2022/12/07 03:24:04;;;;;;;;;;;;;;;;;;5072346;28;19909;-50
2022/12/07 03:26:30;;;;;;;;;;;;;;;;;;5072292;28;19913;-50
2022/12/07 03:28:56;;;;;;;;;;;;;;;;;;5072120;28;19932;-51
2022/12/07 03:31:22;;;;;;;;;;;;;;;;;;5059220;28;20277;-50
2022/12/07 03:33:48;;;;;;;;;;;;;;;;;;5050683;28;19917;-50
2022/12/07 03:36:14;;;;;;;;;;;;;;;;;;5052158;28;20414;-50
2022/12/07 03:38:40;;;;;;;;;;;;;;;;;;5052172;28;19956;-52
2022/12/07 03:41:06;;;;;;;;;;;;;;;;;;5051961;28;19959;-50
2022/12/07 03:43:31;;;;;;;;;;;;;;;;;;5052062;28;20108;-49
2022/12/07 03:45:57;;;;;;;;;;;;;;;;;;5051896;28;20013;-49
2022/12/07 03:48:23;;;;;;;;;;;;;;;;;;5051699;28;19978;-50
2022/12/07 03:50:49;;;;;;;;;;;;;;;;;;5057544;28;19944;-49
2022/12/07 03:53:15;;;;;;;;;;;;;;;;;;5071357;28;19997;-50
2022/12/07 03:55:41;;;;;;;;;;;;;;;;;;5071278;28;19913;-50
2022/12/07 03:58:07;;;;;;;;;;;;;;;;;;5071848;28;19908;-50
2022/12/07 04:00:33;;;;;;;;;;;;;;;;;;5067154;28;20011;-49
2022/12/07 04:02:59;;;;;;;;;;;;;;;;;;5059309;28;20361;-50
2022/12/07 04:05:25;;;;;;;;;;;;;;;;;;5071467;28;19928;-49
2022/12/07 04:07:51;;;;;;;;;;;;;;;;;;5066911;28;19916;-50
2022/12/07 04:10:17;;;;;;;;;;;;;;;;;;5071292;28;19912;-51
2022/12/07 04:12:43;;;;;;;;;;;;;;;;;;5071406;28;19916;-51
2022/12/07 04:15:09;;;;;;;;;;;;;;;;;;5069616;28;20266;-50
2022/12/07 04:17:35;;;;;;;;;;;;;;;;;;5061492;28;20409;-50
2022/12/07 04:20:00;;;;;;;;;;;;;;;;;;5081740;28;19958;-52
2022/12/07 04:22:26;;;;;;;;;;;;;;;;;;5077316;28;20331;-50
2022/12/07 04:24:52;;;;;;;;;;;;;;;;;;5075483;28;19912;-50
2022/12/07 04:27:18;;;;;;;;;;;;;;;;;;5067124;28;19909;-50
2022/12/07 04:29:44;;;;;;;;;;;;;;;;;;5055061;28;19912;-50
2022/12/07 04:32:10;;;;;;;;;;;;;;;;;;5055359;28;19913;-50
2022/12/07 04:34:36;;;;;;;;;;;;;;;;;;5070441;28;20369;-50
2022/12/07 04:37:02;;;;;;;;;;;;;;;;;;5075464;28;19908;-50
2022/12/07 04:39:28;;;;;;;;;;;;;;;;;;5070479;28;19918;-50
2022/12/07 04:41:54;;;;;;;;;;;;;;;;;;5071295;28;19917;-49
2022/12/07 04:44:20;;;;;;;;;;;;;;;;;;5075148;28;19952;-49
2022/12/07 04:46:46;;;;;;;;;;;;;;;;;;5074828;28;20347;-49
2022/12/07 04:49:11;;;;;;;;;;;;;;;;;;5073976;28;19919;-51
2022/12/07 04:51:37;;;;;;;;;;;;;;;;;;5074758;28;19964;-50
2022/12/07 04:54:03;;;;;;;;;;;;;;;;;;5074749;28;19963;-49
2022/12/07 04:56:29;;;;;;;;;;;;;;;;;;5074174;28;19915;-49
2022/12/07 04:58:55;;;;;;;;;;;;;;;;;;5074915;28;19916;-51
2022/12/07 05:01:21;;;;;;;;;;;;;;;;;;5068478;28;19909;-50
2022/12/07 05:03:47;;;;;;;;;;;;;;;;;;5062494;28;20553;-52
2022/12/07 05:06:13;;;;;;;;;;;;;;;;;;5054093;28;19908;-52
2022/12/07 05:08:39;;;;;;;;;;;;;;;;;;5054733;28;19913;-50
2022/12/07 05:11:05;;;;;;;;;;;;;;;;;;5054671;28;19909;-51
2022/12/07 05:13:31;;;;;;;;;;;;;;;;;;5054489;28;19932;-49
2022/12/07 05:15:57;;;;;;;;;;;;;;;;;;5054606;28;20003;-49
2022/12/07 05:18:23;;;;;;;;;;;;;;;;;;5054584;28;19909;-50
2022/12/07 05:20:49;;;;;;;;;;;;;;;;;;5070062;28;19958;-49
2022/12/07 05:23:15;;;;;;;;;;;;;;;;;;5069847;28;19963;-50
2022/12/07 05:25:41;;;;;;;;;;;;;;;;;;5069938;28;19960;-49
2022/12/07 05:28:07;;;;;;;;;;;;;;;;;;5054255;28;19944;-52
2022/12/07 05:30:32;;;;;;;;;;;;;;;;;;5054330;28;19908;-49
2022/12/07 05:32:58;;;;;;;;;;;;;;;;;;5053860;28;20292;-51
2022/12/07 05:35:24;;;;;;;;;;;;;;;;;;5054275;28;20357;-50
2022/12/07 05:37:50;;;;;;;;;;;;;;;;;;5054269;28;19920;-51
2022/12/07 05:40:16;;;;;;;;;;;;;;;;;;5054024;28;19916;-54
2022/12/07 05:42:42;;;;;;;;;;;;;;;;;;5053995;28;19940;-53
2022/12/07 05:45:08;;;;;;;;;;;;;;;;;;5054031;28;19909;-51
2022/12/07 05:47:34;;;;;;;;;;;;;;;;;;5074232;28;19920;-50
2022/12/07 05:50:00;;;;;;;;;;;;;;;;;;5073879;28;19975;-50
2022/12/07 05:52:26;;;;;;;;;;;8.70;95.30;;;;;;5073907;28;19923;-53
2022/12/07 05:54:51;;;;;;;;;;;;;;;;;;5073767;28;19962;-49
2022/12/07 05:57:17;;;;;;;;;;;2.30;99.90;;;;;;5073912;28;19909;-50
2022/12/07 05:59:43;;;;;;;;;;;;;;;;;;5073687;28;19908;-49
2022/12/07 06:02:09;;;;;;;;;;;;;;;;;;5073363;28;19970;-52
2022/12/07 06:04:35;;;;;;;;;;;;;;;;;;5072269;28;20458;-49
2022/12/07 06:07:01;;;;;;;;;;;;;;;;;;5073641;28;19912;-51
2022/12/07 06:09:27;;;;;;;;;;;;;;;;;;5073639;28;19909;-50
2022/12/07 06:14:37;;;;;;;;;;;;;;;;;;5091885;28;20146;-54
2022/12/07 06:17:03;;;;;;;;;;;;;;;;;;5073359;28;20375;-53
2022/12/07 06:19:29;;;;;;;;;;;;;;;;;;5092653;28;19908;-55
2022/12/07 06:21:55;;;;;;;;;;;;;;;;;;5093609;28;19908;-56
2022/12/07 06:24:21;;;;;;;;;;;;;;;;;;5093613;28;20448;-55
2022/12/07 06:26:47;;;;;;;;;;;;;;;;;;5093904;28;19908;-57
2022/12/07 06:29:13;;;;;;;;;;;;;;;;;;5093317;28;20276;-56
2022/12/07 06:31:39;;;;;;;;;;;;;;;;;;5093299;28;19995;-55
2022/12/07 06:34:05;;;;;;;;;;;;;;;;;;5093665;28;19920;-55
2022/12/07 06:36:31;;;;;;;;;;;;;;;;;;5093549;28;19908;-57
2022/12/07 06:38:56;;;;;;;;;;;;;;;;;;5093102;28;19908;-57
2022/12/07 06:41:22;;;;;;;;;;;;;;;;;;5075146;28;19987;-58
2022/12/07 06:43:49;;;;;;;;;;;;;;;;;;5092247;28;20328;-57
2022/12/07 06:46:14;;;;;;;;;;;;;;;;;;5093057;28;19919;-58
2022/12/07 06:48:40;;;;;;;;;;;;;;;;;;5092821;28;19916;-54
2022/12/07 06:51:06;;;;;;;;;;;;;;;;;;5093023;28;19930;-53
2022/12/07 06:53:32;;;;;;;;;;;;;;;;;;5092707;28;20369;-55
2022/12/07 06:55:58;;;;;;;;;;;;;;;;;;5092791;28;19943;-57
2022/12/07 06:58:24;;;;;;;;;;;;;;;;;;5074524;28;19957;-57
2022/12/07 07:00:50;;;;;;;;;;;;;;;;;;5092813;28;19941;-57
2022/12/07 07:03:16;;;;;;;;;;;;;;;;;;5092783;28;19915;-57
2022/12/07 07:05:42;;;;;;;;;;;;;;;;;;5092679;28;19912;-57
2022/12/07 07:08:08;;;;;;;;;;;;;;;;;;5092486;28;19908;-57
2022/12/07 07:10:34;;;;;;;;;;;;;;;;;;5092478;28;19912;-56
2022/12/07 07:13:00;;;;;;;;;;;;;;;;;;5092349;28;19948;-56
2022/12/07 07:15:26;;;;;;;;;;;;;;;;;;5092429;28;20376;-56
2022/12/07 07:17:51;;;;;;;;;;;;;;;;;;5092600;28;19912;-55
2022/12/07 07:20:17;;;;;;;;;;;;;;;;;;5092431;28;20128;-56
2022/12/07 07:22:43;;;;;;;;;;;;;;;;;;5092347;28;19908;-56
2022/12/07 07:25:09;;;;;;;;;;;;;;;;;;5092377;28;20014;-58
2022/12/07 07:27:35;;;;;;;;;;;;;;;;;;5092662;28;20368;-56
2022/12/07 07:30:01;;;;;;;;;;;;;;;;;;5092480;28;20337;-53
2022/12/07 07:32:27;;;;;;;;;;;;;;;;;;5092278;28;20344;-53
2022/12/07 07:34:53;;;;;;;;;;;;;;;;;;5092284;28;20376;-55
2022/12/07 07:37:19;;;;;;;;;;;;;;;;;;5092266;28;19908;-58
2022/12/07 07:39:45;;;;;;;;;;;;;;;;;;5092037;28;19908;-57
2022/12/07 07:42:11;;;;;;;;;;;;;;;;;;5092133;28;19908;-59
2022/12/07 07:44:37;;;;;;;;;;;;;;;;;;5092125;28;20360;-56
2022/12/07 07:47:03;;;;;;;;;;;;;;;;;;5092221;28;19916;-56
2022/12/07 07:49:29;;;;;;;;;;;;;;;;;;5091953;28;19912;-58
2022/12/07 07:51:55;;;;;;;;;;;;;;;;;;5091985;28;19908;-56
2022/12/07 07:54:21;;;;;;;;;;;;;;;;;;5073779;28;19912;-56
2022/12/07 07:56:47;;;;;;;;;;;;;;;;;;5095849;28;19915;-57
2022/12/07 07:59:13;;;;;;;;;;;;;;;;;;5077888;28;19954;-57
2022/12/07 08:01:39;;;;;;;;;;;;;;;;;;5096123;28;19940;-55
2022/12/07 08:04:05;;;;;;;;;;;;;;;;;;5096150;28;19912;-56
2022/12/07 08:06:31;;;;;;;;;;;;;;;;;;5095888;28;19909;-55
2022/12/07 08:08:58;;;;;;;;;;;;;;;;;;5095923;28;19962;-54
2022/12/07 08:11:23;;;;;;;;;;;;;;;;;;5077677;28;19908;-59
2022/12/07 08:13:49;;;;;;;;;;;;;;;;;;5077642;28;19923;-57
2022/12/07 08:16:15;;;;;;;;;;;;;;;;;;5077696;28;20291;-55
2022/12/07 08:18:41;;;;;;;;;;;;;;;;;;5095676;28;19908;-55
2022/12/07 08:21:07;;;;;;;;;;;;;;;;;;5095783;28;20394;-57
2022/12/07 08:23:34;;;;;;;;;;;;;;;;;;5077394;28;19915;-57
2022/12/07 08:25:59;;;;;;;;;;;;;;;;;;5095696;28;19908;-54
2022/12/07 08:28:25;;;;;;;;;;;;;;;;;;5095445;28;20367;-57
2022/12/07 08:30:51;;;;;;;;;;;;;;;;;;5095468;28;19908;-56
2022/12/07 08:33:17;;;;;;;;;;;;;;;;;;5077453;28;19916;-58
2022/12/07 08:35:43;;;;;;;;;;;;;;;;;;5077153;28;19912;-58
2022/12/07 08:38:09;;;;;;;;;;;;;;;;;;5095308;28;20383;-58
2022/12/07 08:40:35;;;;;;;;;;;;;;;;;;5095347;28;19912;-57
2022/12/07 08:43:01;;;;;;;;;;;;;;;;;;5095342;28;19923;-57
2022/12/07 08:45:27;;;;;;;;;;;;;;;;;;5095399;28;19908;-56
2022/12/07 08:47:53;;;;;;;;;;;;;;;;;;5077237;28;19957;-55
2022/12/07 08:50:19;;;;;;;;;;;;;;;;;;5095108;28;20006;-58
2022/12/07 08:52:45;;;;;;;;;;;;;;;;;;5095171;28;19912;-55
2022/12/07 08:55:11;;;;;;;;;;;;;;;;;;5095003;28;19923;-56
2022/12/07 08:57:37;;;;;;;;;;;;;;;;;;5095232;28;19915;-55
2022/12/07 09:00:03;;;;;;;;;;;;;;;;;;5094996;28;19916;-58
2022/12/07 09:02:29;;;;;;;;;;;;;;;;;;5094930;28;19931;-56
2022/12/07 09:04:54;;;;;;;;;;;;;;;;;;5094808;28;19916;-57
2022/12/07 09:07:20;;;;;;;;;;;;;;;;;;5093962;28;19961;-57
2022/12/07 09:09:46;;;;;;;;;;;;;;;;;;5094680;28;20387;-57
2022/12/07 09:12:12;;;;;;;;;;;;;;;;;;5094678;28;20314;-58
2022/12/07 09:14:38;;;;;;;;;;;2.00;99.90;;;;;;5076559;28;19912;-58
2022/12/07 09:17:07;;;;;;;;;;;2.90;99.90;;;;;;5094815;28;19912;-57
2022/12/07 09:19:33;;;;;;;;;;;;;;;;;;5094410;28;20066;-54
2022/12/07 09:21:59;;;;;;;;;;;;;;;;;;5076394;28;19966;-59
2022/12/07 09:24:25;;;;;;;;;;;;;;;;;;5094567;28;19912;-54
2022/12/07 09:26:51;;;;;;;;;;;;;;;;;;5094669;28;19908;-53
2022/12/07 09:29:17;;;;;;;;;;;;;;;;;;5094447;28;20326;-57
2022/12/07 09:31:42;;;;;;;;;;;;;;;;;;5094321;28;20383;-58
2022/12/07 09:34:08;;;;;;;;;;;;;;;;;;5094324;28;19969;-58
2022/12/07 09:36:34;;;;;;;;;;;;;;;;;;5094209;28;19926;-53
2022/12/07 09:39:00;;;;;;;;;;;;;;;;;;5075823;28;19915;-57
2022/12/07 09:41:26;;;;;;;;;;;;;;;;;;5094186;28;19908;-58
2022/12/07 09:43:52;;;;;;;;;;;;;;;;;;5094229;28;20309;-56
2022/12/07 09:46:18;;;;;;;;;;;;;;;;;;5094123;28;19974;-55
2022/12/07 09:48:44;;;;;;;;;;;;;;;;;;5093968;28;19955;-55
2022/12/07 09:51:10;;;;;;;;;;;;;;;;;;5094108;28;19919;-55
2022/12/07 09:53:36;;;;;;;;;;;;;;;;;;5093996;28;20098;-57
2022/12/07 09:56:02;;;;;;;;;;;;;;;;;;5093928;28;20396;-55
2022/12/07 09:58:28;;;;;;;;;;;;;;;;;;5093858;28;19971;-58
2022/12/07 10:00:54;;;;;;;;;;;;;;;;;;5093921;28;19923;-55
2022/12/07 10:03:20;;;;;;;;;;;;;;;;;;5075652;28;19915;-56
2022/12/07 10:05:46;;;;;;;;;;;;;;;;;;5093681;28;19915;-53
2022/12/07 10:08:12;;;;;;;;;;;;;;;;;;5075549;28;19999;-54
2022/12/07 10:10:39;;;;;;;;;;;;;;;;;;5093909;28;19912;-58
2022/12/07 10:13:05;;;;;;;;;;;;;;;;;;5093455;28;19962;-55
2022/12/07 10:15:31;;;;;;;;;;;;;;;;;;5093521;28;19959;-56
2022/12/07 10:17:59;;;;;;;;;;;;;;;;;;5093587;28;19915;-57
2022/12/07 10:20:26;;;;;;;;;;;;;;;;;;5093484;28;19995;-56
2022/12/07 10:22:52;;;;;;;;;;;;;;;;;;5093456;28;19953;-56
2022/12/07 10:25:18;;;;;;;;;;;;;;;;;;5093502;28;19908;-53
2022/12/07 10:27:44;;;;;;;;;;;;;;;;;;5093467;28;20265;-54
2022/12/07 10:30:10;;;;;;;;;;;;;;;;;;5093184;28;20348;-55
2022/12/07 10:32:36;;;;;;;;;;;;;;;;;;5093128;28;19999;-58
2022/12/07 10:35:01;;;;;;;;;;;;;;;;;;5093105;28;20284;-55
2022/12/07 10:37:27;;;;;;;;;;;;;;;;;;5093114;28;20380;-58
2022/12/07 10:39:53;;;;;;;;;;;;;;;;;;5093051;28;19922;-55
2022/12/07 10:42:19;;;;;;;;;;;;;;;;;;5093156;28;19912;-56
2022/12/07 10:44:45;;;;;;;;;;;;;;;;;;5093024;28;20269;-53
2022/12/07 10:47:11;;;;;;;;;;;;;;;;;;5093072;28;20002;-53
2022/12/07 10:49:37;;;;;;;;;;;;;;;;;;5092850;28;19908;-55
2022/12/07 10:52:03;;;;;;;;;;;;;;;;;;5092938;28;20322;-56
2022/12/07 10:54:29;;;;;;;;;;;;;;;;;;5092931;28;19965;-55
2022/12/07 10:56:55;;;;;;;;;;;;;;;;;;5092231;28;19950;-53
2022/12/07 10:59:21;;;;;;;;;;;;;;;;;;5092274;28;19958;-57
2022/12/07 11:01:47;;;;;;;;;;;;;;;;;;5091128;28;19912;-56
2022/12/07 11:04:13;;;;;;;;;;;;;;;;;;5074595;28;20323;-54
2022/12/07 11:06:39;;;;;;;;;;;;;;;;;;5091274;28;20195;-54
2022/12/07 11:09:05;;;;;;;;;;;;;;;;;;5091069;28;19916;-55
2022/12/07 11:11:30;;;;;;;;;;;;;;;;;;5092030;28;19957;-54
2022/12/07 11:13:56;;;;;;;;;;;;;;;;;;5092234;28;19923;-53
2022/12/07 11:16:22;;;;;;;;;;;;;;;;;;5092158;28;19927;-54
2022/12/07 11:18:48;;;;;;;;;;;3.00;99.90;;;;;;5092256;28;20326;-54
2022/12/07 11:21:16;;;;;;;;;;;4.70;99.90;;;;;;5091144;28;19927;-51
2022/12/07 11:23:49;;;;;;;;;;;4.60;99.20;;;;;;5089938;28;19919;-51
2022/12/07 11:26:33;;;;;;;;;;;4.40;99.30;;;;;;5090790;28;19916;-51
2022/12/07 11:29:01;;;;;;;;;;;4.40;99.90;;;;;;5087493;28;20378;-53
2022/12/07 11:31:44;;;;;;;;;;;4.50;99.90;;;;;;5073186;28;19919;-52
2022/12/07 11:34:24;;;;;;;;;;;4.50;99.90;;;;;;5092312;28;19920;-54
2022/12/07 11:36:52;;;;;;;;;;;4.60;99.90;;;;;;5090329;28;19912;-53
2022/12/07 11:39:21;;;;;;;;;;;4.60;99.90;;;;;;5091873;28;20318;-55
2022/12/07 11:41:51;;;;;;;;;;;4.70;99.90;;;;;;5091477;28;19943;-54
2022/12/07 11:44:27;;;;;;;;;;;4.70;99.90;;;;;;5092067;28;19912;-51
2022/12/07 11:47:05;;;;;;;;;;;4.60;99.70;;;;;;5091816;28;19965;-52
2022/12/07 11:49:49;;;;;;;;;;;4.50;99.70;;;;;;5091637;28;19912;-52
2022/12/07 11:52:21;;;;;;;;;;;4.40;99.70;;;;;;5091612;28;19961;-52
2022/12/07 11:54:48;;;;;;;;;;;4.40;99.90;;;;;;5092080;28;20538;-52
2022/12/07 11:57:27;;;;;;;;;;;4.50;99.90;;;;;;5089653;28;20002;-52
2022/12/07 11:59:57;;;;;;;;;;;4.50;99.90;;;;;;5090917;28;19912;-52
2022/12/07 12:02:26;;;;;;;;;;;4.50;99.90;;;;;;5089374;28;19934;-52
2022/12/07 12:05:10;;;;;;;;;;;7.20;99.90;;;;;;5089318;28;19981;-51
2022/12/07 12:07:36;;;;;;;;;;;4.50;99.80;;;;;;5089855;28;19948;-53
2022/12/07 12:10:05;;;;;;;;;;;4.50;99.90;;;;;;5088402;28;19939;-52
2022/12/07 12:12:37;;;;;;;;;;;4.50;99.90;;;;;;5103463;22;19976;-50
2022/12/07 12:15:17;;;;;;;;;;;4.40;99.80;;;;;;5111125;28;19988;-51
2022/12/07 12:17:56;;;;;;;;;;;4.20;99.90;;;;;;5110612;28;20010;-52
2022/12/07 12:20:32;;;;;;;;;;;4.20;99.90;;;;;;5109860;28;20339;-53
2022/12/07 12:23:01;;;;;;;;;;;4.30;99.90;;;;;;5109555;28;19922;-53
2022/12/07 12:25:36;;;;;;;;;;;4.50;99.90;;;;;;5093253;28;19946;-52
2022/12/07 12:28:02;;;;;;;;;;;4.50;99.90;;;;;;5101951;28;19912;-53
2022/12/07 12:30:33;;;;;;;;;;;4.50;99.90;;;;;;5096526;28;20287;-52
2022/12/07 12:33:25;;;;;;;;;;;4.50;99.90;;;;;;5105182;28;19908;-53
2022/12/07 12:36:10;;;;;;;;;;;4.60;99.90;;;;;;5096858;28;19949;-53
2022/12/07 12:38:53;;;;;;;;;;;4.50;99.90;;;;;;5108969;28;19996;-53
2022/12/07 12:44:15;;;;;;;;;;;4.80;99.90;;;;;;5115063;28;20436;-54
2022/12/07 12:46:52;;;;;;;;;;;4.90;99.90;;;;;;5113995;28;19912;-54
2022/12/07 12:49:19;;;;;;;;;;;5.00;99.70;;;;;;5101523;28;19959;-53
2022/12/07 12:51:50;;;;;;;;;;;4.90;99.90;;;;;;5098887;28;19916;-53
2022/12/07 12:54:16;;;;;;;;;;;5.00;99.70;;;;;;5110066;28;19916;-53
2022/12/07 12:56:47;;;;;;;;;;;4.90;99.30;;;;;;5115345;28;19956;-53
2022/12/07 12:59:23;;;;;;;;;;;4.90;99.90;;;;;;5103336;28;19919;-52
2022/12/07 13:01:54;;;;;;;;;;;4.80;99.90;;;;;;5097779;28;19954;-53
2022/12/07 13:04:24;;;;;;;;;;;4.80;99.90;;;;;;5108284;28;19919;-53
2022/12/07 13:06:50;;;;;;;;;;;4.90;99.90;;;;;;5097344;28;20261;-52
2022/12/07 13:09:26;;;;;;;;;;;4.90;99.90;;;;;;5094898;28;19915;-53
2022/12/07 13:12:11;;;;;;;;;;;4.90;99.80;;;;;;5112133;28;19912;-54
2022/12/07 13:14:40;;;;;;;;;;;4.80;99.80;;;;;;5099531;28;19951;-54
2022/12/07 13:17:28;;;;;;;;;;;4.70;99.90;;;;;;5111191;28;19926;-52
2022/12/07 13:19:54;;;;;;;;;;;4.80;99.90;;;;;;5111506;28;20014;-53
2022/12/07 13:22:32;;;;;;;;;;;4.90;99.90;;;;;;5096146;28;19923;-52
2022/12/07 13:24:59;;;;;;;;;;;4.90;99.90;;;;;;5095985;28;19916;-53
2022/12/07 13:27:25;;;;;;;;;;;;;;;;;;5104903;28;19916;-52
2022/12/07 13:29:51;;;;;;;;;;;;;;;;;;5106255;28;19912;-53
2022/12/07 13:32:17;;;;;;;;;;;;;;;;;;5112664;28;19919;-53
2022/12/07 13:34:44;;;;;;;;;;;;;;;;;;5107925;28;20433;-53
2022/12/07 13:37:10;;;;;;;;;;;;;;;;;;5096325;28;19908;-53
2022/12/07 13:39:36;;;;;;;;;;;;;;;;;;5108514;28;19919;-52
2022/12/07 13:42:02;;;;;;;;;;;;;;;;;;5094598;28;19908;-52
2022/12/07 13:44:28;;;;;;;;;;;;;;;;;;5098448;28;20014;-52
2022/12/07 13:46:54;;;;;;;;;;;;;;;;;;5099386;28;19971;-54
2022/12/07 13:49:21;;;;;;;;;;;;;;;;;;5108707;28;19963;-53
2022/12/07 13:51:46;;;;;;;;;;;;;;;;;;5094243;28;19915;-53
2022/12/07 13:54:12;;;;;;;;;;;;;;;;;;5098112;28;19916;-52
2022/12/07 13:56:39;;;;;;;;;;;;;;;;;;5094232;28;19916;-53
2022/12/07 13:59:05;;;;;;;;;;;;;;;;;;5093929;28;19908;-55
2022/12/07 14:01:31;;;;;;;;;;;;;;;;;;5105635;28;20440;-53
2022/12/07 14:03:57;;;;;;;;;;;;;;;;;;5108359;28;20053;-54
2022/12/07 14:06:27;;;;;;;;;;;;;;;;;;5111244;27;19912;-55
2022/12/07 14:08:54;;;;;;;;;;;;;;;;;;5128230;27;19911;-53
2022/12/07 14:11:20;;;;;;;;;;;;;;;;;;5118471;27;19915;-52
2022/12/07 14:13:46;;;;;;;;;;;;;;;;;;5102388;28;19916;-53
2022/12/07 14:16:12;;;;;;;;;;;;;;;;;;5099008;28;19909;-53
2022/12/07 14:18:37;;;;;;;;;;;;;;;;;;5094552;28;19965;-52
2022/12/07 14:21:03;;;;;;;;;;;;;;;;;;5110374;28;20325;-53
2022/12/07 14:23:29;;;;;;;;;;;;;;;;;;5108022;28;20380;-55
2022/12/07 14:25:55;;;;;;;;;;;;;;;;;;5106062;28;19912;-54
2022/12/07 14:28:21;;;;;;;;;;;;;;;;;;5100960;28;19973;-52
2022/12/07 14:30:47;;;;;;;;;;;;;;;;;;5101301;28;19919;-53
2022/12/07 14:33:13;;;;;;;;;;;;;;;;;;5112612;28;19915;-53
2022/12/07 14:35:40;;;;;;;;;;;;;;;;;;5110085;28;20022;-52
2022/12/07 14:38:06;;;;;;;;;;;;;;;;;;5097980;28;20276;-56
2022/12/07 14:40:32;;;;;;;;;;;;;;;;;;5109913;27;19919;-53
2022/12/07 14:42:58;;;;;;;;;;;;;;;;;;5125038;27;19912;-52
2022/12/07 14:45:24;;;;;;;;;;;;;;;;;;5111098;28;19934;-52
2022/12/07 14:47:49;;;;;;;;;;;;;;;;;;5108672;28;20010;-52
2022/12/07 14:50:15;;;;;;;;;;;;;;;;;;5097011;28;20261;-52
2022/12/07 14:52:41;;;;;;;;;;;;;;;;;;5113019;28;20295;-53
2022/12/07 14:55:07;;;;;;;;;;;;;;;;;;5096571;28;19916;-53
2022/12/07 14:57:34;;;;;;;;;;;;;;;;;;5093305;28;19918;-53
2022/12/07 15:00:00;;;;;;;;;;;;;;;;;;5103263;28;20010;-53
2022/12/07 15:02:26;;;;;;;;;;;;;;;;;;5111889;28;20371;-53
2022/12/07 15:04:52;;;;;;;;;;;;;;;;;;5105928;28;19939;-53
2022/12/07 15:07:18;;;;;;;;;;;;;;;;;;5098073;28;19955;-55
2022/12/07 15:09:44;;;;;;;;;;;;;;;;;;5092991;28;20007;-57
2022/12/07 15:12:10;;;;;;;;;;;;;;;;;;5092610;28;19908;-55
2022/12/07 15:14:35;;;;;;;;;;;;;;;;;;5094643;28;19912;-54
2022/12/07 15:17:01;;;;;;;;;;;;;;;;;;5093258;28;19908;-52
2022/12/07 15:19:27;;;;;;;;;;;;;;;;;;5092517;28;20037;-53
2022/12/07 15:21:53;;;;;;;;;;;;;;;;;;5092495;28;20521;-52
2022/12/07 15:24:19;;;;;;;;;;;;;;;;;;5095143;28;19912;-53
2022/12/07 15:26:45;;;;;;;;;;;;;;;;;;5092511;28;19915;-55
2022/12/07 15:29:11;;;;;;;;;;;;;;;;;;5092441;28;19958;-55
2022/12/07 15:31:37;;;;;;;;;;;;;;;;;;5091195;28;19908;-53
2022/12/07 15:34:03;;;;;;;;;;;;;;;;;;5092250;28;20441;-53
2022/12/07 15:36:29;;;;;;;;;;;;;;;;;;5092372;28;19931;-53
2022/12/07 15:38:55;;;;;;;;;;;;;;;;;;5092323;28;20299;-56
2022/12/07 15:41:21;;;;;;;;;;;;;;;;;;5092293;28;20007;-54
2022/12/07 15:46:31;;;;;;;;;;;;;;;;;;5092376;28;19958;-53
2022/12/07 15:48:57;;;;;;;;;;;;;;;;;;5104826;28;19916;-52
2022/12/07 15:51:23;;;;;;;;;;;;;;;;;;5112675;28;19911;-56
2022/12/07 15:53:49;;;;;;;;;;;;;;;;;;5110166;28;19947;-52
2022/12/07 15:56:15;;;;;;;;;;;;;;;;;;5102748;28;19947;-53
2022/12/07 15:58:41;;;;;;;;;;;;;;;;;;5092125;28;19923;-52
2022/12/07 16:01:07;;;;;;;;;;;;;;;;;;5092369;28;19909;-52
2022/12/07 16:03:33;;;;;;;;;;;;;;;;;;5090909;28;19916;-53
2022/12/07 16:05:59;;;;;;;;;;;;;;;;;;5101749;28;19912;-52
2022/12/07 16:08:25;;;;;;;;;;;;;;;;;;5111293;28;19919;-52
2022/12/07 16:10:51;;;;;;;;;;;;;;;;;;5112442;28;19951;-52
2022/12/07 16:13:19;;;;;;;;;;;;;;;;;;5111949;28;19963;-52
2022/12/07 16:15:44;;;;;;;;;;;;;;;;;;5112529;27;20298;-53
2022/12/07 16:18:10;;;;;;;;;;;;;;;;;;5116293;28;19907;-57
2022/12/07 16:20:36;;;;;;;;;;;;;;;;;;5115100;28;19915;-54
2022/12/07 16:23:02;;;;;;;;;;;;;;;;;;5116368;28;19908;-53
2022/12/07 16:25:28;;;;;;;;;;;;;;;;;;5116462;28;19915;-52
2022/12/07 16:27:54;;;;;;;;;;;;;;;;;;5116330;28;19911;-53
2022/12/07 16:30:20;;;;;;;;;;;;;;;;;;5116025;28;19911;-54